Time;durP1;ratioP1;P1;durP2;ratioP2;P2;SDS_P1;SDS_P2;PMS_P1;PMS_P2;Temp;Humidity;BMP_temperature;BMP_pressure;BME280_temperature;BME280_humidity;BME280_pressure;Samples;Min_cycle;Max_cycle;Signal;HPM_P1;HPM_P2
2021/10/27 00:00:30;;;;;;;11.15;5.07;;;9.60;99.90;;;;;;5049469;28;20486;-70
2021/10/27 00:02:56;;;;;;;7.80;4.32;;;9.60;99.90;;;;;;5050111;28;20025;-69
2021/10/27 00:05:22;;;;;;;7.07;4.05;;;9.60;99.90;;;;;;5049891;28;20083;-69
2021/10/27 00:07:47;;;;;;;11.85;4.35;;;9.60;99.90;;;;;;5049385;28;20025;-70
2021/10/27 00:10:13;;;;;;;7.07;4.60;;;9.60;99.90;;;;;;5051227;28;20404;-68
2021/10/27 00:12:39;;;;;;;10.35;4.57;;;9.60;99.90;;;;;;5050520;28;20083;-68
2021/10/27 00:15:09;;;;;;;8.30;4.32;;;9.60;99.90;;;;;;5051244;28;20017;-68
2021/10/27 00:17:35;;;;;;;11.50;4.97;;;9.60;99.90;;;;;;5050567;28;20025;-68
2021/10/27 00:20:03;;;;;;;8.10;5.45;;;9.60;99.90;;;;;;5049742;28;20025;-68
2021/10/27 00:22:29;;;;;;;9.07;5.03;;;9.60;99.90;;;;;;5049754;28;20029;-68
2021/10/27 00:24:54;;;;;;;12.38;4.75;;;9.70;99.90;;;;;;5051032;28;20029;-68
2021/10/27 00:27:20;;;;;;;7.55;5.20;;;9.60;99.90;;;;;;5050684;28;20494;-68
2021/10/27 00:29:46;;;;;;;9.77;5.50;;;9.80;99.90;;;;;;5049985;28;20071;-68
2021/10/27 00:32:11;;;;;;;7.22;4.60;;;9.70;99.90;;;;;;5050682;28;20029;-68
2021/10/27 00:34:37;;;;;;;7.72;5.43;;;9.60;99.90;;;;;;5050613;28;20025;-69
2021/10/27 00:37:03;;;;;;;8.23;4.30;;;9.60;99.90;;;;;;5052372;28;20363;-69
2021/10/27 00:39:29;;;;;;;7.30;4.50;;;9.60;99.90;;;;;;5054818;28;20141;-69
2021/10/27 00:41:54;;;;;;;7.82;5.82;;;9.60;99.90;;;;;;5052730;28;20033;-68
2021/10/27 00:44:23;;;;;;;5.75;4.38;;;9.50;99.90;;;;;;5054723;28;20052;-68
2021/10/27 00:47:01;;;;;;;6.20;4.63;;;9.50;99.90;;;;;;5052662;28;20029;-69
2021/10/27 00:49:29;;;;;;;7.72;4.70;;;9.50;99.90;;;;;;5054517;28;20078;-69
2021/10/27 00:51:55;;;;;;;8.57;5.35;;;9.50;99.90;;;;;;5054072;28;20137;-68
2021/10/27 00:54:22;;;;;;;7.93;4.72;;;9.50;99.90;;;;;;5054288;28;20037;-68
2021/10/27 00:56:51;;;;;;;13.43;5.32;;;9.50;99.90;;;;;;5053495;28;20032;-69
2021/10/27 00:59:16;;;;;;;9.02;5.20;;;9.50;99.90;;;;;;5053060;28;20056;-69
2021/10/27 01:01:42;;;;;;;8.60;5.22;;;9.50;99.90;;;;;;5053483;28;20032;-69
2021/10/27 01:04:09;;;;;;;9.38;5.15;;;9.50;99.90;;;;;;5052713;28;20052;-68
2021/10/27 01:06:35;;;;;;;9.27;5.15;;;9.50;99.90;;;;;;5052071;28;20029;-68
2021/10/27 01:09:00;;;;;;;7.75;5.30;;;9.50;99.90;;;;;;5054161;28;20064;-68
2021/10/27 01:11:26;;;;;;;7.40;5.03;;;9.50;99.90;;;;;;5054241;28;20124;-69
2021/10/27 01:13:53;;;;;;;9.10;5.18;;;9.50;99.90;;;;;;5052268;28;20331;-69
2021/10/27 01:16:18;;;;;;;9.80;5.53;;;9.60;99.90;;;;;;5052877;28;20025;-69
2021/10/27 01:18:44;;;;;;;8.70;5.60;;;9.70;99.90;;;;;;5052015;28;20313;-69
2021/10/27 01:21:10;;;;;;;8.80;6.00;;;9.70;99.90;;;;;;5052493;28;20040;-69
2021/10/27 01:23:37;;;;;;;10.00;5.43;;;9.80;99.90;;;;;;5053459;28;20105;-69
2021/10/27 01:26:08;;;;;;;8.13;4.93;;;9.90;99.90;;;;;;5054160;28;20090;-69
2021/10/27 01:28:38;;;;;;;12.45;5.40;;;10.00;99.90;;;;;;5053781;28;20052;-74
2021/10/27 01:31:04;;;;;;;6.65;5.05;;;10.00;99.90;;;;;;5052435;28;20029;-69
2021/10/27 01:33:29;;;;;;;7.65;5.05;;;10.10;99.90;;;;;;5052448;28;20052;-69
2021/10/27 01:35:55;;;;;;;7.60;5.65;;;10.10;99.90;;;;;;5051841;28;20382;-69
2021/10/27 01:38:20;;;;;;;10.95;5.70;;;10.20;99.90;;;;;;5053555;28;20040;-69
2021/10/27 01:40:46;;;;;;;11.05;5.57;;;10.10;99.90;;;;;;5051965;28;20043;-69
2021/10/27 01:43:12;;;;;;;9.82;6.05;;;10.20;99.90;;;;;;5052518;28;20061;-69
2021/10/27 01:45:37;;;;;;;9.50;5.20;;;10.20;99.90;;;;;;5053420;28;20029;-69
2021/10/27 01:48:03;;;;;;;8.43;5.55;;;10.20;99.90;;;;;;5051139;28;20089;-69
2021/10/27 01:50:29;;;;;;;10.15;5.45;;;10.30;99.90;;;;;;5054079;28;20087;-69
2021/10/27 01:52:54;;;;;;;13.48;6.28;;;10.30;99.90;;;;;;5053073;28;20083;-68
2021/10/27 01:55:20;;;;;;;8.77;5.90;;;10.40;99.90;;;;;;5053374;28;20032;-68
2021/10/27 01:57:46;;;;;;;10.98;6.10;;;10.50;99.90;;;;;;5052836;28;20394;-68
2021/10/27 02:00:12;;;;;;;8.85;5.85;;;10.50;99.90;;;;;;5053353;28;20029;-69
2021/10/27 02:02:38;;;;;;;9.38;5.78;;;10.40;99.90;;;;;;5051494;28;20025;-70
2021/10/27 02:05:04;;;;;;;11.95;6.03;;;10.50;99.90;;;;;;5051900;28;20032;-69
2021/10/27 02:07:30;;;;;;;13.98;6.05;;;10.50;99.90;;;;;;5052954;28;20036;-69
2021/10/27 02:09:56;;;;;;;9.82;5.72;;;10.50;99.90;;;;;;5052783;28;20283;-70
2021/10/27 02:12:21;;;;;;;13.63;5.70;;;10.60;99.90;;;;;;5053258;28;20457;-68
2021/10/27 02:14:47;;;;;;;6.95;5.40;;;10.60;99.90;;;;;;5052235;28;20033;-68
2021/10/27 02:17:13;;;;;;;7.18;5.07;;;10.50;99.90;;;;;;5052783;28;20060;-68
2021/10/27 02:19:38;;;;;;;7.03;4.88;;;10.60;99.90;;;;;;5052388;28;20033;-69
2021/10/27 02:22:04;;;;;;;8.30;5.63;;;10.60;99.90;;;;;;5053274;28;20060;-68
2021/10/27 02:24:30;;;;;;;9.93;5.93;;;10.60;99.90;;;;;;5053050;28;20028;-69
2021/10/27 02:26:55;;;;;;;15.48;6.15;;;10.50;99.90;;;;;;5051875;28;20037;-69
2021/10/27 02:29:21;;;;;;;9.65;5.35;;;10.50;99.90;;;;;;5051606;28;20071;-69
2021/10/27 02:31:47;;;;;;;7.15;4.95;;;10.40;99.90;;;;;;5050942;28;20032;-69
2021/10/27 02:34:13;;;;;;;7.68;5.93;;;10.50;99.90;;;;;;5051285;28;20025;-69
2021/10/27 02:36:38;;;;;;;8.48;5.78;;;10.40;99.90;;;;;;5050727;28;20083;-69
2021/10/27 02:39:04;;;;;;;11.52;5.60;;;10.50;99.90;;;;;;5052277;28;20032;-69
2021/10/27 02:41:30;;;;;;;10.35;5.63;;;10.60;99.90;;;;;;5051299;28;20086;-70
2021/10/27 02:43:56;;;;;;;9.18;5.60;;;10.60;99.90;;;;;;5052344;28;20111;-68
2021/10/27 02:46:21;;;;;;;9.32;5.93;;;10.60;99.90;;;;;;5051107;28;20028;-69
2021/10/27 02:48:47;;;;;;;10.23;5.90;;;10.50;99.90;;;;;;5051948;28;20362;-69
2021/10/27 02:51:13;;;;;;;10.05;6.13;;;10.40;99.90;;;;;;5051130;28;20339;-69
2021/10/27 02:53:38;;;;;;;10.43;5.82;;;10.40;99.90;;;;;;5051749;28;20523;-77
2021/10/27 02:56:04;;;;;;;10.20;6.28;;;10.50;99.90;;;;;;5052460;28;20480;-68
2021/10/27 02:58:30;;;;;;;9.07;5.72;;;10.50;99.90;;;;;;5051636;28;20081;-68
2021/10/27 03:00:56;;;;;;;10.52;5.95;;;10.50;99.90;;;;;;5050191;28;20462;-68
2021/10/27 03:03:21;;;;;;;9.88;5.40;;;10.50;99.90;;;;;;5052367;28;20017;-68
2021/10/27 03:05:47;;;;;;;9.18;5.63;;;10.60;99.90;;;;;;5052041;28;20497;-69
2021/10/27 03:08:13;;;;;;;10.60;5.80;;;10.50;99.90;;;;;;5053258;28;20024;-69
2021/10/27 03:10:38;;;;;;;8.50;6.20;;;10.60;99.90;;;;;;5052824;28;20028;-68
2021/10/27 03:13:04;;;;;;;8.38;5.75;;;10.60;99.90;;;;;;5054647;28;20459;-68
2021/10/27 03:15:30;;;;;;;12.07;6.70;;;10.50;99.90;;;;;;5058621;28;20029;-68
2021/10/27 03:17:55;;;;;;;7.57;5.35;;;10.50;99.90;;;;;;5056285;28;20478;-69
2021/10/27 03:20:21;;;;;;;7.18;5.10;;;10.50;99.90;;;;;;5055698;28;20087;-69
2021/10/27 03:22:47;;;;;;;10.02;6.13;;;10.40;99.90;;;;;;5052377;28;20071;-67
2021/10/27 03:25:12;;;;;;;12.07;6.70;;;10.50;99.90;;;;;;5052001;28;20534;-68
2021/10/27 03:27:38;;;;;;;9.65;5.72;;;10.50;99.90;;;;;;5051860;28;20045;-68
2021/10/27 03:30:04;;;;;;;7.82;5.45;;;10.60;99.90;;;;;;5051032;28;20028;-69
2021/10/27 03:32:30;;;;;;;12.27;5.65;;;10.60;99.90;;;;;;5051702;28;20047;-68
2021/10/27 03:34:55;;;;;;;13.18;6.28;;;10.60;99.90;;;;;;5051214;28;20444;-69
2021/10/27 03:37:21;;;;;;;14.13;6.32;;;10.70;99.90;;;;;;5049248;28;20025;-69
2021/10/27 03:39:47;;;;;;;11.10;6.25;;;10.80;99.90;;;;;;5032394;28;20033;-69
2021/10/27 03:42:12;;;;;;;8.55;5.70;;;10.70;99.90;;;;;;5031161;28;20045;-69
2021/10/27 03:44:38;;;;;;;8.32;4.95;;;10.70;99.90;;;;;;5030684;28;20026;-70
2021/10/27 03:47:03;;;;;;;10.45;5.88;;;10.70;99.90;;;;;;5029376;28;20509;-68
2021/10/27 03:49:29;;;;;;;9.32;6.22;;;10.70;99.90;;;;;;5031663;28;20084;-69
2021/10/27 03:51:55;;;;;;;10.57;6.60;;;10.70;99.90;;;;;;5029575;28;20025;-69
2021/10/27 03:54:21;;;;;;;12.13;5.68;;;10.70;99.90;;;;;;5030191;28;20416;-69
2021/10/27 03:56:46;;;;;;;10.60;6.03;;;10.70;99.90;;;;;;5030577;28;20138;-69
2021/10/27 03:59:12;;;;;;;10.23;5.65;;;10.60;99.90;;;;;;5029937;28;20029;-69
2021/10/27 04:01:38;;;;;;;11.57;5.93;;;10.60;99.90;;;;;;5030061;28;20124;-69
2021/10/27 04:04:03;;;;;;;11.82;5.80;;;10.50;99.90;;;;;;5029329;28;20028;-69
2021/10/27 04:06:29;;;;;;;8.52;6.32;;;10.40;99.90;;;;;;5029864;28;20064;-68
2021/10/27 04:08:55;;;;;;;14.30;7.53;;;10.50;99.90;;;;;;5029608;28;20052;-68
2021/10/27 04:11:21;;;;;;;12.88;6.32;;;10.40;99.90;;;;;;5033962;28;20032;-68
2021/10/27 04:13:46;;;;;;;13.43;5.95;;;10.40;99.90;;;;;;5033428;28;20430;-68
2021/10/27 04:16:12;;;;;;;12.63;6.22;;;10.40;99.90;;;;;;5033896;28;20026;-69
2021/10/27 04:18:37;;;;;;;11.32;6.07;;;10.40;99.90;;;;;;5033984;28;20033;-68
2021/10/27 04:21:03;;;;;;;11.60;5.68;;;10.40;99.90;;;;;;5034459;28;20041;-68
2021/10/27 04:23:29;;;;;;;9.77;6.32;;;10.50;99.90;;;;;;5035159;28;20029;-68
2021/10/27 04:25:54;;;;;;;10.82;5.97;;;10.60;99.90;;;;;;5034136;28;20133;-68
2021/10/27 04:28:20;;;;;;;12.15;6.38;;;10.60;99.90;;;;;;5033376;28;20140;-68
2021/10/27 04:30:46;;;;;;;11.68;6.00;;;10.60;99.90;;;;;;5034602;28;20033;-69
2021/10/27 04:33:22;;;;;;;12.65;6.72;;;10.60;99.90;;;;;;5035080;28;20029;-69
2021/10/27 04:35:49;;;;;;;7.35;6.38;;;10.70;99.90;;;;;;5034720;28;20064;-68
2021/10/27 04:38:16;;;;;;;11.45;6.30;;;10.70;99.90;;;;;;5035255;28;20033;-69
2021/10/27 04:40:44;;;;;;;10.77;6.18;;;10.80;99.90;;;;;;5034901;28;20030;-68
2021/10/27 04:43:10;;;;;;;12.77;6.88;;;10.80;99.90;;;;;;5034819;28;20040;-68
2021/10/27 04:45:37;;;;;;;16.67;6.38;;;10.90;99.90;;;;;;5034919;28;20037;-68
2021/10/27 04:48:03;;;;;;;11.73;5.70;;;10.80;99.90;;;;;;5066202;28;20124;-68
2021/10/27 04:50:29;;;;;;;10.65;5.90;;;10.90;99.90;;;;;;5033181;28;20029;-68
2021/10/27 04:52:55;;;;;;;11.05;6.07;;;10.90;99.90;;;;;;5034102;28;20378;-68
2021/10/27 04:55:21;;;;;;;9.93;6.10;;;10.80;99.90;;;;;;5033181;28;20087;-68
2021/10/27 04:57:47;;;;;;;9.20;5.10;;;10.80;99.90;;;;;;5033708;28;20419;-69
2021/10/27 05:00:13;;;;;;;12.55;6.30;;;10.90;99.90;;;;;;5034889;28;20029;-68
2021/10/27 05:02:39;;;;;;;10.68;5.90;;;10.90;99.90;;;;;;5033417;28;20479;-68
2021/10/27 05:05:06;;;;;;;15.73;6.22;;;10.90;99.90;;;;;;5032497;28;20295;-68
2021/10/27 05:07:32;;;;;;;21.48;8.07;;;11.00;99.90;;;;;;5033112;28;20041;-68
2021/10/27 05:09:58;;;;;;;12.18;7.38;;;11.00;99.90;;;;;;5032524;28;20033;-69
2021/10/27 05:12:24;;;;;;;13.80;7.32;;;11.00;99.90;;;;;;5033106;28;20383;-68
2021/10/27 05:14:50;;;;;;;13.88;6.55;;;10.90;99.90;;;;;;5033361;28;20107;-68
2021/10/27 05:17:15;;;;;;;17.45;6.57;;;10.90;99.90;;;;;;5034124;28;20018;-68
2021/10/27 05:19:43;;;;;;;10.38;6.90;;;11.00;99.90;;;;;;5034141;28;20029;-69
2021/10/27 05:22:10;;;;;;;18.45;6.70;;;10.90;99.90;;;;;;5033022;28;20037;-68
2021/10/27 05:24:37;;;;;;;10.13;6.43;;;10.80;99.90;;;;;;5032237;28;20033;-68
2021/10/27 05:27:04;;;;;;;15.38;7.47;;;10.60;99.90;;;;;;5031674;28;20080;-68
2021/10/27 05:29:30;;;;;;;17.33;7.28;;;10.70;99.90;;;;;;5034075;28;20048;-69
2021/10/27 05:31:55;;;;;;;12.57;8.00;;;10.60;99.90;;;;;;5031504;28;20464;-69
2021/10/27 05:34:22;;;;;;;11.88;6.95;;;10.60;99.90;;;;;;5031801;28;20507;-69
2021/10/27 05:36:48;;;;;;;9.32;6.20;;;10.50;99.90;;;;;;5033267;28;20064;-71
2021/10/27 05:39:14;;;;;;;17.05;7.47;;;10.40;99.90;;;;;;5032013;28;20041;-69
2021/10/27 05:41:48;;;;;;;15.88;7.93;;;10.50;99.90;;;;;;5032048;28;20033;-69
2021/10/27 05:44:18;;;;;;;14.80;7.18;;;10.50;99.90;;;;;;5033233;28;20428;-69
2021/10/27 05:46:46;;;;;;;10.45;7.53;;;10.50;99.90;;;;;;5031540;28;20105;-68
2021/10/27 05:56:56;;;;;;;14.13;6.55;;;10.40;99.90;;;;;;5033022;28;20523;-69
2021/10/27 05:59:22;;;;;;;11.82;7.68;;;10.60;99.90;;;;;;5031626;28;20033;-69
2021/10/27 06:01:48;;;;;;;15.52;7.35;;;10.60;99.90;;;;;;5031570;28;20101;-68
2021/10/27 06:04:17;;;;;;;12.77;7.05;;;10.60;99.90;;;;;;5032921;28;20025;-68
2021/10/27 06:06:45;;;;;;;12.85;6.90;;;10.60;99.90;;;;;;5032712;28;20032;-68
2021/10/27 06:09:11;;;;;;;12.20;7.10;;;10.70;99.90;;;;;;5031123;28;20053;-68
2021/10/27 06:11:37;;;;;;;16.30;7.85;;;10.70;99.90;;;;;;5031426;28;20032;-70
2021/10/27 06:14:04;;;;;;;15.77;7.32;;;10.80;99.90;;;;;;5031029;28;20462;-68
2021/10/27 06:16:30;;;;;;;12.13;7.63;;;10.80;99.90;;;;;;5031265;28;20072;-68
2021/10/27 06:18:56;;;;;;;15.38;7.10;;;10.90;99.90;;;;;;5030908;28;20337;-69
2021/10/27 06:21:22;;;;;;;11.48;7.95;;;11.00;99.90;;;;;;5033028;28;20026;-68
2021/10/27 06:23:48;;;;;;;14.75;7.15;;;10.90;99.90;;;;;;5032171;28;20044;-69
2021/10/27 06:26:13;;;;;;;11.32;7.00;;;11.00;99.90;;;;;;5031901;28;20034;-68
2021/10/27 06:29:01;;;;;;;11.35;7.97;;;11.10;99.90;;;;;;5032585;28;20068;-69
2021/10/27 06:31:41;;;;;;;19.25;7.43;;;11.10;99.90;;;;;;5031481;28;20033;-69
2021/10/27 06:34:23;;;;;;;12.23;6.60;;;11.10;99.90;;;;;;5030242;28;20053;-68
2021/10/27 06:47:25;;;;;;;12.10;7.13;;;11.20;99.90;;;;;;5031936;28;20036;-68
2021/10/27 06:49:50;;;;;;;19.25;7.50;;;11.30;99.90;;;;;;5031786;28;20021;-68
2021/10/27 06:52:16;;;;;;;19.27;7.00;;;11.30;99.90;;;;;;5030098;28;20166;-68
2021/10/27 06:54:44;;;;;;;15.10;8.32;;;11.40;99.90;;;;;;5032065;28;20033;-68
2021/10/27 06:57:10;;;;;;;12.20;7.70;;;11.50;99.90;;;;;;5029729;28;20424;-69
2021/10/27 06:59:39;;;;;;;16.05;8.63;;;11.40;99.90;;;;;;5030287;28;20052;-68
2021/10/27 07:15:36;;;;;;;18.13;7.40;;;11.30;99.90;;;;;;5040430;28;20056;-68
2021/10/27 07:18:02;;;;;;;19.48;8.75;;;11.40;99.90;;;;;;5046291;28;20026;-70
2021/10/27 07:20:28;;;;;;;15.82;8.48;;;11.50;99.90;;;;;;5030390;28;20025;-68
2021/10/27 07:22:57;;;;;;;15.75;9.35;;;11.50;99.90;;;;;;5030017;28;20036;-72
2021/10/27 07:25:23;;;;;;;16.75;7.63;;;11.60;99.90;;;;;;5033761;28;20035;-70
2021/10/27 07:27:50;;;;;;;20.02;8.90;;;11.50;99.90;;;;;;5051404;28;20064;-69
2021/10/27 07:30:17;;;;;;;10.30;7.18;;;11.50;99.90;;;;;;5049662;28;20033;-68
2021/10/27 07:32:42;;;;;;;11.18;7.32;;;11.40;99.90;;;;;;5032411;28;20088;-73
2021/10/27 07:43:00;;;;;;;16.02;7.53;;;11.30;99.90;;;;;;5049796;28;20037;-67
2021/10/27 07:45:26;;;;;;;12.95;7.13;;;11.30;99.90;;;;;;5050318;28;20104;-67
2021/10/27 07:47:55;;;;;;;10.85;6.65;;;11.30;99.90;;;;;;5049393;28;20116;-68
2021/10/27 07:50:27;;;;;;;10.27;4.28;;;11.40;99.90;;;;;;5050680;28;20112;-69
2021/10/27 07:52:53;;;;;;;21.25;7.78;;;12.40;99.90;;;;;;5047754;28;20026;-70
2021/10/27 07:55:20;;;;;;;14.27;6.03;;;12.70;99.90;;;;;;5048548;28;20060;-71
2021/10/27 07:57:49;;;;;;;10.85;6.70;;;13.10;99.90;;;;;;5049539;28;20033;-69
2021/10/27 08:00:16;;;;;;;14.25;5.53;;;13.40;99.90;;;;;;5048876;28;20090;-68
2021/10/27 08:02:50;;;;;;;11.52;6.40;;;13.60;99.90;;;;;;5050641;28;20053;-68
2021/10/27 08:05:16;;;;;;;10.18;6.47;;;13.30;99.90;;;;;;5050360;28;20025;-69
2021/10/27 08:07:50;;;;;;;14.25;6.70;;;12.90;99.90;;;;;;5049538;28;20029;-68
2021/10/27 08:10:19;;;;;;;11.13;6.30;;;12.70;99.90;;;;;;5050433;28;20195;-69
2021/10/27 08:12:46;;;;;;;18.83;7.18;;;12.40;99.90;;;;;;5050781;28;20063;-69
2021/10/27 08:15:12;;;;;;;11.60;6.38;;;12.30;99.90;;;;;;5049004;28;20029;-68
2021/10/27 08:17:40;;;;;;;15.05;7.25;;;12.20;99.90;;;;;;5049524;28;20052;-69
2021/10/27 08:20:07;;;;;;;17.52;7.53;;;12.20;99.90;;;;;;5048565;28;20044;-69
2021/10/27 08:22:34;;;;;;;12.32;5.85;;;12.20;99.90;;;;;;5048927;28;20111;-69
2021/10/27 08:25:04;;;;;;;11.70;6.95;;;12.20;99.90;;;;;;5048855;28;20037;-70
2021/10/27 08:27:33;;;;;;;15.68;7.70;;;12.20;99.90;;;;;;5033223;28;20067;-67
2021/10/27 08:30:04;;;;;;;13.32;6.40;;;12.20;99.90;;;;;;5047911;28;20120;-75
2021/10/27 08:32:40;;;;;;;13.27;7.05;;;12.20;99.90;;;;;;5044593;28;20063;-70
2021/10/27 08:35:07;;;;;;;13.73;6.68;;;12.30;99.90;;;;;;5048551;28;20056;-70
2021/10/27 08:37:33;;;;;;;13.60;7.22;;;12.40;99.90;;;;;;5049127;28;20033;-66
2021/10/27 08:39:59;;;;;;;11.23;7.22;;;12.30;99.90;;;;;;5047595;28;20059;-75
2021/10/27 08:42:25;;;;;;;13.15;6.40;;;12.20;99.90;;;;;;5049544;28;20470;-66
2021/10/27 08:44:51;;;;;;;34.95;11.13;;;12.00;99.90;;;;;;5049242;28;20111;-65
2021/10/27 08:47:24;;;;;;;13.57;8.35;;;12.10;99.90;;;;;;5048161;28;20025;-66
2021/10/27 08:49:51;;;;;;;12.88;6.50;;;12.50;99.90;;;;;;5049242;28;20136;-66
2021/10/27 08:52:16;;;;;;;12.35;6.75;;;12.70;99.90;;;;;;5048683;28;20497;-65
2021/10/27 08:54:42;;;;;;;17.15;6.80;;;12.80;99.90;;;;;;5050551;28;20037;-65
2021/10/27 08:57:11;;;;;;;15.25;7.15;;;12.80;99.90;;;;;;5049881;28;20021;-65
2021/10/27 09:02:32;;;;;;;9.82;6.07;;;13.40;99.90;;;;;;5052118;28;20033;-69
2021/10/27 09:05:35;;;;;;;9.98;6.10;;;13.90;99.90;;;;;;5054212;28;20085;-70
2021/10/27 09:16:59;;;;;;;10.93;6.15;;;12.80;99.90;;;;;;5052717;28;20074;-69
2021/10/27 09:33:47;;;;;;;14.20;6.18;;;12.90;99.90;;;;;;5047018;28;20102;-68
2021/10/27 09:34:02;;;;;;;20.13;6.10;;;14.70;99.90;;;;;;5033598;28;20075;-65
2021/10/27 09:37:13;;;;;;;14.00;6.22;;;15.10;99.90;;;;;;5034078;28;20033;-65
2021/10/27 09:40:00;;;;;;;9.77;5.40;;;15.50;99.90;;;;;;5038068;28;20040;-68
2021/10/27 10:05:08;;;;;;;10.48;4.70;;;17.70;99.90;;;;;;5045618;28;20036;-70
2021/10/27 10:07:35;;;;;;;7.32;4.75;;;17.50;99.90;;;;;;5051148;28;20028;-70
2021/10/27 10:10:06;;;;;;;9.73;4.82;;;17.60;99.90;;;;;;5050950;28;20025;-69
2021/10/27 10:12:44;;;;;;;10.32;5.03;;;17.50;99.90;;;;;;5043996;28;20104;-70
2021/10/27 10:15:11;;;;;;;10.70;5.13;;;17.70;99.90;;;;;;5049912;28;20147;-70
2021/10/27 10:17:45;;;;;;;11.57;5.25;;;17.70;99.90;;;;;;5050995;28;20040;-69
2021/10/27 10:20:14;;;;;;;5.90;4.20;;;18.10;99.90;;;;;;5051657;28;20033;-69
2021/10/27 10:22:41;;;;;;;7.05;4.68;;;18.00;99.90;;;;;;5049276;28;20061;-69
2021/10/27 10:25:22;;;;;;;10.65;4.68;;;17.70;99.90;;;;;;5030115;28;20107;-70
2021/10/27 10:27:53;;;;;;;6.25;4.72;;;17.00;99.90;;;;;;5045548;28;20072;-69
2021/10/27 10:30:40;;;;;;;8.10;5.75;;;17.60;99.90;;;;;;5051901;28;20041;-68
2021/10/27 10:33:07;;;;;;;8.68;4.70;;;17.70;99.90;;;;;;5044232;28;20083;-71
2021/10/27 10:35:58;;;;;;;8.32;4.60;;;18.20;99.90;;;;;;5048338;28;20051;-68
2021/10/27 10:56:11;;;;;;;8.18;4.20;;;20.00;98.60;;;;;;5051063;28;20084;-69
2021/10/27 11:24:31;;;;;;;7.97;3.85;;;19.20;99.90;;;;;;5050273;28;20040;-70
2021/10/27 11:27:13;;;;;;;6.35;3.33;;;19.20;99.90;;;;;;5049179;28;20029;-69
2021/10/27 11:40:59;;;;;;;5.43;3.20;;;19.10;99.90;;;;;;5051238;28;20163;-69
2021/10/27 11:45:55;;;;;;;8.65;3.72;;;19.50;99.90;;;;;;5050868;28;20312;-69
2021/10/27 11:50:57;;;;;;;8.45;3.90;;;20.00;99.40;;;;;;5051084;28;20036;-68
2021/10/27 11:53:31;;;;;;;11.45;3.42;;;19.90;99.30;;;;;;5050700;28;20029;-70
2021/10/27 11:56:08;;;;;;;7.35;3.70;;;19.60;99.30;;;;;;5051022;28;20037;-69
2021/10/27 11:58:37;;;;;;;8.13;3.60;;;19.80;99.30;;;;;;5050720;28;20028;-69
2021/10/27 12:01:04;;;;;;;7.95;4.10;;;20.60;98.50;;;;;;5048977;28;20025;-71
2021/10/27 12:03:42;;;;;;;5.35;3.17;;;20.80;97.70;;;;;;5048903;28;20601;-69
2021/10/27 12:06:28;;;;;;;12.32;8.95;;;20.50;97.70;;;;;;5050605;28;20029;-69
2021/10/27 12:12:01;;;;;;;7.90;4.45;;;20.50;98.50;;;;;;5050028;28;20489;-69
2021/10/27 12:14:37;;;;;;;5.65;3.63;;;20.10;98.60;;;;;;5049700;28;20029;-69
2021/10/27 12:17:29;;;;;;;6.82;3.28;;;20.20;98.60;;;;;;5050613;28;20063;-69
2021/10/27 12:19:55;;;;;;;5.95;3.05;;;19.80;99.00;;;;;;5049038;28;20459;-69
2021/10/27 12:22:22;;;;;;;4.93;3.03;;;19.50;99.60;;;;;;5048559;28;20036;-68
2021/10/27 12:25:00;;;;;;;3.97;2.50;;;19.90;99.00;;;;;;5049242;28;20037;-69
2021/10/27 12:27:31;;;;;;;7.18;2.95;;;20.20;98.70;;;;;;5048284;28;20064;-69
2021/10/27 12:30:05;;;;;;;4.78;2.67;;;19.60;98.70;;;;;;5050537;28;20033;-69
2021/10/27 12:32:32;;;;;;;10.27;3.20;;;19.40;99.70;;;;;;5050642;28;20460;-70
2021/10/27 12:35:16;;;;;;;6.30;3.03;;;19.30;99.60;;;;;;5054570;28;20036;-69
2021/10/27 12:40:24;;;;;;;3.42;2.10;;;19.20;99.80;;;;;;5054255;28;20037;-69
2021/10/27 12:43:03;;;;;;;7.83;3.93;;;19.00;99.90;;;;;;5054149;28;20180;-70
2021/10/27 12:45:55;;;;;;;5.60;2.72;;;19.20;99.80;;;;;;5053579;28;20025;-69
2021/10/27 12:48:21;;;;;;;8.00;2.90;;;19.00;99.90;;;;;;5049809;28;20555;-69
2021/10/27 12:50:56;;;;;;;5.80;3.10;;;19.50;99.70;;;;;;5052913;28;20112;-69
2021/10/27 12:53:33;;;;;;;5.43;2.40;;;20.20;98.90;;;;;;5052198;28;20084;-70
2021/10/27 12:56:18;;;;;;;5.50;2.65;;;19.90;98.90;;;;;;5052232;28;20041;-69
2021/10/27 12:58:55;;;;;;;3.75;1.92;;;20.00;99.20;;;;;;5053382;28;20432;-70
2021/10/27 13:11:46;;;;;;;4.72;1.98;;;21.00;97.00;;;;;;5053410;28;20031;-69
2021/10/27 13:30:21;;;;;;;3.78;1.58;;;20.30;97.20;;;;;;5053465;28;20048;-68
2021/10/27 13:32:54;;;;;;;3.55;1.55;;;20.40;97.30;;;;;;5052131;28;20520;-70
2021/10/27 13:35:21;;;;;;;8.50;1.90;;;20.20;97.20;;;;;;5051374;28;20102;-69
2021/10/27 13:37:47;;;;;;;3.78;1.40;;;19.60;97.60;;;;;;5052822;28;20028;-69
2021/10/27 13:40:14;;;;;;;4.43;1.65;;;19.70;98.20;;;;;;5053180;28;20115;-69
2021/10/27 13:42:51;;;;;;;6.10;1.95;;;19.80;97.90;;;;;;5050208;28;20462;-70
2021/10/27 13:47:59;;;;;;;5.10;2.17;;;19.40;98.70;;;;;;5053190;28;20033;-70
2021/10/27 14:07:03;;;;;;;3.25;1.50;;;18.90;99.50;;;;;;5049338;28;20044;-69
2021/10/27 14:14:36;;;;;;;6.00;1.92;;;18.30;99.90;;;;;;5050814;28;20371;-70
2021/10/27 14:17:34;;;;;;;6.10;2.30;;;18.30;99.90;;;;;;5050570;28;20036;-70
2021/10/27 15:19:46;;;;;;;2.97;1.00;;;19.10;99.90;;;;;;5048535;28;20044;-67
2021/10/27 15:43:31;;;;;;;4.07;1.67;;;17.00;99.90;;;;;;5051149;28;20029;-70
2021/10/27 15:51:28;;;;;;;1.77;1.10;;;16.60;99.90;;;;;;5050002;28;20072;-71
2021/10/27 15:53:55;;;;;;;5.68;1.98;;;16.40;99.90;;;;;;5048571;28;20139;-69
2021/10/27 15:56:22;;;;;;;3.72;1.38;;;16.40;99.90;;;;;;5050447;28;20095;-70
2021/10/27 15:58:48;;;;;;;5.53;1.95;;;16.50;99.90;;;;;;5049025;28;20057;-70
2021/10/27 16:01:13;;;;;;;3.15;1.15;;;16.30;99.90;;;;;;5049465;28;20036;-69
2021/10/27 16:03:39;;;;;;;1.92;0.93;;;16.20;99.90;;;;;;5050254;28;20029;-70
2021/10/27 16:06:06;;;;;;;6.32;1.55;;;16.20;99.90;;;;;;5050044;28;20029;-69
2021/10/27 16:08:35;;;;;;;4.63;1.33;;;16.20;99.90;;;;;;5048633;28;20481;-71
2021/10/27 16:11:01;;;;;;;3.80;1.45;;;16.10;99.90;;;;;;5049293;28;20036;-69
2021/10/27 16:13:26;;;;;;;5.68;1.27;;;16.10;99.90;;;;;;5048965;28;20021;-70
2021/10/27 16:15:59;;;;;;;5.57;1.27;;;16.10;99.90;;;;;;5048392;28;20021;-70
2021/10/27 16:18:33;;;;;;;2.55;1.52;;;16.00;99.90;;;;;;5048245;28;20029;-70
2021/10/27 16:21:01;;;;;;;6.32;1.40;;;15.90;99.90;;;;;;5049452;28;20313;-70
2021/10/27 16:23:27;;;;;;;3.40;1.77;;;15.80;99.90;;;;;;5048255;28;20089;-70
2021/10/27 16:25:54;;;;;;;4.30;2.40;;;15.80;99.90;;;;;;5050868;28;20065;-69
2021/10/27 16:28:21;;;;;;;2.83;2.00;;;15.70;99.90;;;;;;5045105;28;20106;-69
2021/10/27 16:30:47;;;;;;;4.45;2.42;;;15.60;99.90;;;;;;5048341;28;20078;-69
2021/10/27 16:33:14;;;;;;;5.60;2.45;;;15.60;99.90;;;;;;5050469;28;20318;-69
2021/10/27 16:35:43;;;;;;;6.30;2.83;;;15.60;99.90;;;;;;5048287;28;20025;-68
2021/10/27 16:38:09;;;;;;;6.68;3.35;;;15.50;99.90;;;;;;5047194;28;20075;-70
2021/10/27 16:40:35;;;;;;;7.78;3.78;;;15.50;99.90;;;;;;5048035;28;20123;-69
2021/10/27 16:43:01;;;;;;;7.45;3.38;;;15.50;99.90;;;;;;5050180;28;20029;-69
2021/10/27 16:45:27;;;;;;;5.82;2.90;;;15.40;99.90;;;;;;5048308;28;20525;-70
2021/10/27 16:47:53;;;;;;;6.90;3.22;;;15.30;99.90;;;;;;5045316;28;20048;-70
2021/10/27 16:50:19;;;;;;;5.53;3.42;;;15.30;99.90;;;;;;5041385;28;20144;-69
2021/10/27 16:52:46;;;;;;;4.68;3.20;;;15.30;99.90;;;;;;5037670;28;20032;-71
2021/10/27 16:55:19;;;;;;;9.35;3.95;;;15.20;99.90;;;;;;5048331;28;20125;-66
2021/10/27 16:57:48;;;;;;;10.93;3.67;;;15.20;99.90;;;;;;5045631;28;20036;-68
2021/10/27 17:00:15;;;;;;;8.95;3.95;;;15.10;99.90;;;;;;5044156;28;20428;-71
2021/10/27 17:02:41;;;;;;;9.57;4.05;;;14.90;99.90;;;;;;5042788;28;20036;-69
2021/10/27 17:05:07;;;;;;;9.20;5.10;;;14.90;99.90;;;;;;5045587;28;20526;-67
2021/10/27 17:07:34;;;;;;;8.93;4.45;;;14.80;99.90;;;;;;5047437;28;20057;-68
2021/10/27 17:10:01;;;;;;;10.68;4.40;;;14.80;99.90;;;;;;5046162;28;20053;-68
2021/10/27 17:12:27;;;;;;;10.35;4.55;;;14.70;99.90;;;;;;5043031;28;20025;-80
2021/10/27 17:14:52;;;;;;;6.50;3.90;;;14.70;99.90;;;;;;5047681;28;20498;-68
2021/10/27 17:17:18;;;;;;;11.77;3.65;;;14.70;99.90;;;;;;5043152;28;20028;-68
2021/10/27 17:19:44;;;;;;;9.32;4.07;;;14.60;99.90;;;;;;5046479;28;20033;-69
2021/10/27 17:22:12;;;;;;;6.20;4.05;;;14.60;99.90;;;;;;5050132;28;20039;-67
2021/10/27 17:24:38;;;;;;;8.35;4.30;;;14.60;99.90;;;;;;5053394;28;20115;-68
2021/10/27 17:27:04;;;;;;;59.80;16.50;;;14.50;99.90;;;;;;5047941;28;20036;-73
2021/10/27 17:29:31;;;;;;;10.75;5.43;;;14.60;99.90;;;;;;5048334;28;20401;-72
2021/10/27 17:31:57;;;;;;;7.05;4.18;;;14.80;99.90;;;;;;5050345;28;20119;-72
2021/10/27 17:34:24;;;;;;;8.30;4.18;;;14.90;99.90;;;;;;5052296;28;20029;-74
2021/10/27 17:36:50;;;;;;;5.55;4.03;;;14.90;99.90;;;;;;5068132;28;20035;-73